Flight Track Log - Related Links

Times and Time Zones

All times are in EDT time to prevent confusion due to time zone crossing. See the SWA1319 flight status page for this flight to view local times or setup timezone preferences in your user account.

Time Position Orientation Groundspeed Altitude Reporting Facility
EDT Latitude Longitude Course Direction KTS MPH feet Rate Location/Type
Mon 08:43:12 AM 42.9500 -71.4167 144° Southeast 158 182 1,100  Level KA90
Mon 08:44:27 AM 43.0061 -71.3925 17° North 231 266 4,500 2,978 Climbing Boston Center
Mon 08:45:27 AM 43.0261 -71.3042 73° East 212 244 7,800 2,850 Climbing Boston Center
Mon 08:46:27 AM 43.0419 -71.2128 77° East 236 272 10,200 2,500 Climbing Boston Center
Mon 08:47:27 AM 43.0617 -71.1072 76° East 264 304 12,800 2,500 Climbing Boston Center
Mon 08:48:00 AM 43.0280 -70.9113 144° Southeast  Level FlightAware Approximate
Mon 08:48:27 AM 43.0706 -70.9933 84° East 298 343 15,200  Level Boston Center
Mon 08:49:27 AM 43.0069 -70.9011 133° Southeast 312 359 16,600 1,400 Climbing Boston Center
Mon 08:50:27 AM 42.9072 -70.9236 189° South 292 336 18,000 1,500 Climbing Boston Center
Mon 08:51:27 AM 42.8222 -70.9597 197° South 326 375 19,600 1,850 Climbing Boston Center
Mon 08:52:27 AM 42.7269 -71.0100 201° Southwest 348 400 21,700 2,000 Climbing Boston Center
Mon 08:53:27 AM 42.6233 -71.0603 200° South 375 432 23,600 1,550 Climbing Boston Center
Mon 08:54:27 AM 42.5411 -71.1439 217° Southwest 389 448 24,800 1,400 Climbing Boston Center
Mon 08:55:27 AM 42.4903 -71.2828 244° Southwest 373 429 26,400 2,450 Climbing Boston Center
Mon 08:56:27 AM 42.4436 -71.4103 244° Southwest 389 448 29,700 2,650 Climbing Boston Center
Mon 08:57:27 AM 42.4008 -71.5292 244° Southwest 373 429 31,700 1,550 Climbing Boston Center
Mon 08:58:27 AM 42.3517 -71.6422 240° Southwest 360 414 32,800 1,150 Climbing Boston Center
Mon 08:59:27 AM 42.3067 -71.7550 242° Southwest 355 409 34,000 600 Climbing Boston Center
Mon 09:00:27 AM 42.2508 -71.8650 236° Southwest 355 409 34,000  Level Boston Center
Mon 09:01:27 AM 42.1931 -71.9722 234° Southwest 361 415 34,000  Level Boston Center
Mon 09:02:27 AM 42.1350 -72.0761 233° Southwest 361 415 34,000  Level Boston Center
Mon 09:03:27 AM 42.0792 -72.1800 234° Southwest 361 415 34,000  Level Boston Center
Mon 09:04:27 AM 42.0169 -72.2947 234° Southwest 361 415 34,000  Level Boston Center
Mon 09:05:27 AM 41.9564 -72.3983 232° Southwest 356 410 34,000  Level Boston Center
Mon 09:06:27 AM 41.8981 -72.5014 233° Southwest 356 410 34,000  Level Boston Center
Mon 09:07:27 AM 41.8417 -72.6044 234° Southwest 356 410 34,000  Level Boston Center
Mon 09:08:27 AM 41.7833 -72.7075 233° Southwest 356 410 34,000  Level Boston Center
Mon 09:09:27 AM 41.7244 -72.8100 232° Southwest 356 410 34,000  Level Boston Center
Mon 09:10:27 AM 41.6636 -72.9125 232° Southwest 356 410 34,000 -200 Level Boston Center
Mon 09:11:27 AM 41.6050 -73.0175 233° Southwest 361 415 33,600 -700 Descending Boston Center
Mon 09:12:27 AM 41.5439 -73.1253 233° Southwest 361 415 32,600 -800 Descending Boston Center
Mon 09:13:27 AM 41.4869 -73.2269 233° Southwest 361 415 32,000 -188 Descending Boston Center
Mon 09:15:39 AM 41.3583 -73.4497 232° Southwest 362 417 32,000  Level New York Center
Mon 09:16:41 AM 41.2889 -73.5683 232° Southwest 368 423 32,000 -49 Level New York Center
Mon 09:17:41 AM 41.2258 -73.6733 231° Southwest 368 423 31,900 -50 Descending New York Center
Mon 09:18:41 AM 41.1650 -73.7808 233° Southwest 368 423 31,900  Level New York Center
Mon 09:19:41 AM 41.1039 -73.8856 232° Southwest 368 423 31,900 -101 Level New York Center
Mon 09:20:40 AM 41.0386 -73.9925 231° Southwest 368 423 31,700 -850 Descending New York Center
Mon 09:21:41 AM 40.9753 -74.0967 231° Southwest 368 423 30,200 -1,550 Descending New York Center
Mon 09:22:40 AM 40.9228 -74.1847 232° Southwest 368 423 28,600 -2,750 Descending New York Center
Mon 09:23:41 AM 40.8461 -74.3069 230° Southwest 381 438 24,700 -3,273 Descending New York Center
Mon 09:24:41 AM 40.7781 -74.4214 232° Southwest 397 457 22,000 -1,412 Descending New York Center
Mon 09:25:40 AM 40.7122 -74.5300 231° Southwest 397 457 21,900 -458 Descending New York Center
Mon 09:26:39 AM 40.6439 -74.6411 231° Southwest 397 457 21,100 -843 Descending New York Center
Mon 09:27:41 AM 40.5714 -74.7572 231° Southwest 403 464 20,200 -950 Descending New York Center
Mon 09:28:39 AM 40.4881 -74.8778 228° Southwest 417 480 19,200 -950 Descending New York Center
Mon 09:29:41 AM 40.4133 -74.9853 228° Southwest 408 470 18,300 -590 Descending New York Center
Mon 09:30:41 AM 40.3475 -75.0792 227° Southwest 401 461 18,000 -153 Descending New York Center
Mon 09:31:39 AM 40.2750 -75.1781 226° Southwest 396 456 18,000  Level New York Center
Mon 09:32:41 AM 40.1981 -75.2819 226° Southwest 396 456 18,000  Level New York Center
Mon 09:33:40 AM 40.1211 -75.3908 227° Southwest 389 448 18,000  Level New York Center
Mon 09:34:40 AM 40.0550 -75.4814 226° Southwest 389 448 18,000  Level New York Center
Mon 09:35:41 AM 39.9756 -75.5900 226° Southwest 384 442 18,000 149 Level New York Center
Mon 09:36:41 AM 39.9111 -75.6828 228° Southwest 384 442 18,300 -454 Climbing New York Center
Mon 09:37:40 AM 39.8433 -75.8106 235° Southwest 390 449 17,100 -1,400 Descending New York Center
Mon 09:38:41 AM 39.7972 -75.9072 238° Southwest 379 436 15,500 -1,749 Descending New York Center
Mon 09:40:35 AM 39.6833 -76.1167 235° Southwest 336 387 12,000 -1,448 Descending Potomac TRACON
Mon 09:41:35 AM 39.6333 -76.2167 237° Southwest 348 400 11,300 -842 Descending Potomac TRACON
Mon 09:42:29 AM 39.5833 -76.3167 237° Southwest 358 412 10,400 -684 Descending Potomac TRACON
Mon 09:43:29 AM 39.5333 -76.4167 237° Southwest 314 361 10,000 -1,050 Descending Potomac TRACON
Mon 09:44:29 AM 39.5000 -76.5000 243° Southwest 280 322 8,300 -1,800 Descending Potomac TRACON
Mon 09:45:29 AM 39.4667 -76.5833 243° Southwest 278 320 6,400 -1,785 Descending Potomac TRACON
Mon 09:46:30 AM 39.4167 -76.6833 237° Southwest 277 319 4,700 -1,190 Descending Potomac TRACON
Mon 09:47:30 AM 39.3833 -76.7667 243° Southwest 275 316 4,000 -574 Descending Potomac TRACON
Mon 09:48:25 AM 39.3500 -76.8333 237° Southwest 275 316 3,600 -626 Descending Potomac TRACON
Mon 09:49:25 AM 39.2667 -76.8167 171° South 253 291 2,800 -800 Descending Potomac TRACON

Login

Don't have an account? Register now (free) for customized features, flight alerts, and more!